createdAt,value
2023-02-07T00:00:37.399Z,96425.28
2023-02-07T00:03:03.885Z,96436.75
2023-02-07T00:05:30.533Z,96426.78
2023-02-07T00:07:57.100Z,96419.28
2023-02-07T00:10:23.670Z,96409.38
2023-02-07T00:12:50.142Z,96408.22
2023-02-07T00:15:16.679Z,96398.41
2023-02-07T00:17:43.202Z,96399.13
2023-02-07T00:20:10.395Z,96370.47
2023-02-07T00:22:36.860Z,96379.34
2023-02-07T00:25:03.777Z,96389.72
2023-02-07T00:27:32.573Z,96383.22
2023-02-07T00:29:59.029Z,96392.31
2023-02-07T00:32:25.512Z,96391.91
2023-02-07T00:34:52.030Z,96401.31
2023-02-07T00:37:18.493Z,96384.66
2023-02-07T00:39:44.984Z,96380.91
2023-02-07T00:42:11.518Z,96367.28
2023-02-07T00:44:38.048Z,96383.91
2023-02-07T00:47:04.513Z,96382.69
2023-02-07T00:49:30.977Z,96365.03
2023-02-07T00:51:57.470Z,96388.63
2023-02-07T00:54:23.955Z,96387.63
2023-02-07T00:56:50.456Z,96409.69
2023-02-07T00:59:16.933Z,96394.16
2023-02-07T01:01:43.393Z,96411.97
2023-02-07T01:04:09.860Z,96393.34
2023-02-07T01:06:36.354Z,96402.41
2023-02-07T01:09:05.828Z,96399.44
2023-02-07T01:11:32.801Z,96405.72
2023-02-07T01:14:01.022Z,96410.09
2023-02-07T01:16:34.290Z,96424.81
2023-02-07T01:19:05.729Z,96444.25
2023-02-07T01:21:32.261Z,96449.22
2023-02-07T01:23:58.756Z,96456.31
2023-02-07T01:26:26.451Z,96447.94
2023-02-07T01:28:54.317Z,96454.25
2023-02-07T01:31:21.458Z,96446.63
2023-02-07T01:33:52.472Z,96430.66
2023-02-07T01:36:18.952Z,96415.91
2023-02-07T01:38:45.400Z,96433.69
2023-02-07T01:41:14.025Z,96440.63
2023-02-07T01:44:03.255Z,96435.66
2023-02-07T01:46:31.565Z,96436.00
2023-02-07T01:49:04.109Z,96429.16
2023-02-07T01:51:32.854Z,96432.25
2023-02-07T01:54:04.744Z,96430.75
2023-02-07T01:56:32.625Z,96424.22
2023-02-07T01:59:02.182Z,96444.13
2023-02-07T02:01:28.700Z,96447.47
2023-02-07T02:03:56.672Z,96450.50
2023-02-07T02:06:27.766Z,96441.75
2023-02-07T02:08:59.648Z,96445.50
2023-02-07T02:11:46.120Z,96444.41
2023-02-07T02:14:28.407Z,96447.84
2023-02-07T02:17:10.266Z,96444.09
2023-02-07T02:19:55.210Z,96440.41
2023-02-07T02:22:21.665Z,96438.66
2023-02-07T02:25:05.346Z,96432.06
2023-02-07T02:28:00.936Z,96429.75
2023-02-07T02:30:52.266Z,96434.59
2023-02-07T02:33:41.025Z,96434.78
2023-02-07T02:36:38.365Z,96433.06
2023-02-07T02:39:41.857Z,96441.44
2023-02-07T02:42:18.575Z,96429.00
2023-02-07T02:45:02.727Z,96438.75
2023-02-07T02:47:33.160Z,96426.97
2023-02-07T02:50:00.005Z,96437.72
2023-02-07T02:52:44.658Z,96438.84
2023-02-07T02:55:15.477Z,96433.84
2023-02-07T02:58:09.789Z,96435.69
2023-02-07T03:01:10.855Z,96439.31
2023-02-07T03:03:43.427Z,96451.56
2023-02-07T03:06:47.233Z,96464.66
2023-02-07T03:09:45.035Z,96445.69
2023-02-07T03:12:30.542Z,96465.91
2023-02-07T03:15:26.065Z,96473.56
2023-02-07T03:18:20.881Z,96478.25
2023-02-07T03:21:17.364Z,96473.13
2023-02-07T03:23:48.504Z,96484.44
2023-02-07T03:26:16.189Z,96486.13
2023-02-07T03:28:46.094Z,96479.63
2023-02-07T03:31:17.602Z,96494.47
2023-02-07T03:33:51.018Z,96500.84
2023-02-07T03:36:27.396Z,96501.16
2023-02-07T03:38:54.008Z,96506.13
2023-02-07T03:41:32.919Z,96513.38
2023-02-07T03:44:02.297Z,96510.78
2023-02-07T03:46:34.550Z,96519.84
2023-02-07T03:49:01.206Z,96518.38
2023-02-07T03:51:27.712Z,96525.81
2023-02-07T03:53:54.145Z,96539.63
2023-02-07T03:56:20.735Z,96538.66
2023-02-07T03:58:47.200Z,96537.66
2023-02-07T04:01:13.801Z,96555.03
2023-02-07T04:03:40.344Z,96550.03
2023-02-07T04:06:07.102Z,96550.00
2023-02-07T04:08:33.656Z,96552.66
2023-02-07T04:11:02.728Z,96572.19
2023-02-07T04:13:30.061Z,96564.94
2023-02-07T04:15:56.854Z,96565.16
2023-02-07T04:18:23.352Z,96577.44
2023-02-07T04:20:49.905Z,96575.78
2023-02-07T04:23:16.560Z,96579.28
2023-02-07T04:25:43.354Z,96590.09
2023-02-07T04:28:09.797Z,96596.50
2023-02-07T04:30:36.361Z,96607.06
2023-02-07T04:33:02.871Z,96613.72
2023-02-07T04:35:29.334Z,96616.81
2023-02-07T04:37:55.785Z,96626.16
2023-02-07T04:40:22.277Z,96632.41
2023-02-07T04:42:49.566Z,96630.06
2023-02-07T04:45:16.229Z,96631.13
2023-02-07T04:47:42.716Z,96648.47
2023-02-07T04:50:09.263Z,96646.66
2023-02-07T04:52:35.748Z,96639.34
2023-02-07T04:55:02.214Z,96651.53
2023-02-07T04:57:28.683Z,96659.19
2023-02-07T04:59:55.220Z,96661.78
2023-02-07T05:02:21.667Z,96676.38
2023-02-07T05:04:48.156Z,96667.16
2023-02-07T05:07:14.635Z,96683.19
2023-02-07T05:09:41.114Z,96695.81
2023-02-07T05:12:07.656Z,96696.88
2023-02-07T05:14:34.145Z,96702.00
2023-02-07T05:17:00.995Z,96712.50
2023-02-07T05:19:27.481Z,96710.69
2023-02-07T05:21:53.965Z,96717.38
2023-02-07T05:24:20.576Z,96731.44
2023-02-07T05:26:47.056Z,96732.03
2023-02-07T05:29:13.535Z,96725.38
2023-02-07T05:31:40.165Z,96727.50
2023-02-07T05:34:06.709Z,96726.25
2023-02-07T05:36:33.180Z,96744.75
2023-02-07T05:38:59.653Z,96750.88
2023-02-07T05:41:26.128Z,96761.59
2023-02-07T05:43:52.597Z,96775.44
2023-02-07T05:46:19.221Z,96774.13
2023-02-07T05:48:45.712Z,96774.00
2023-02-07T05:51:12.164Z,96769.06
2023-02-07T05:53:38.688Z,96788.97
2023-02-07T05:56:05.456Z,96786.50
2023-02-07T05:58:31.924Z,96783.03
2023-02-07T06:00:58.448Z,96791.81
2023-02-07T06:03:25.025Z,96803.84
2023-02-07T06:05:51.515Z,96794.69
2023-02-07T06:08:18.020Z,96806.59
2023-02-07T06:10:44.483Z,96816.09
2023-02-07T06:13:10.952Z,96820.13
2023-02-07T06:15:37.702Z,96817.16
2023-02-07T06:18:04.470Z,96825.19
2023-02-07T06:20:30.950Z,96840.53
2023-02-07T06:22:57.609Z,96840.28
2023-02-07T06:25:24.126Z,96844.50
2023-02-07T06:27:50.629Z,96854.28
2023-02-07T06:30:18.159Z,96862.97
2023-02-07T06:32:44.619Z,96869.00
2023-02-07T06:35:11.104Z,96874.13
2023-02-07T06:37:37.596Z,96890.78
2023-02-07T06:40:04.586Z,96886.31
2023-02-07T06:42:31.068Z,96891.81
2023-02-07T06:44:57.834Z,96910.06
2023-02-07T06:47:24.320Z,96911.75
2023-02-07T06:49:50.814Z,96898.28
2023-02-07T06:52:17.295Z,96901.06
2023-02-07T06:54:43.762Z,96906.22
2023-02-07T06:57:10.284Z,96904.38
2023-02-07T06:59:36.754Z,96914.41
2023-02-07T07:02:03.932Z,96917.59
2023-02-07T07:04:31.034Z,96914.00
2023-02-07T07:06:57.575Z,96930.75
2023-02-07T07:09:24.104Z,96924.16
2023-02-07T07:11:50.577Z,96923.50
2023-02-07T07:14:17.070Z,96918.81
2023-02-07T07:16:43.639Z,96924.44
2023-02-07T07:19:10.132Z,96926.09
2023-02-07T07:21:36.651Z,96932.97
2023-02-07T07:24:03.200Z,96921.66
2023-02-07T07:26:39.699Z,96925.84
2023-02-07T07:29:14.640Z,96924.91
2023-02-07T07:31:41.200Z,96932.13
2023-02-07T07:34:07.713Z,96937.16
2023-02-07T07:36:34.306Z,96934.63
2023-02-07T07:39:00.995Z,96929.81
2023-02-07T07:41:27.508Z,96931.00
2023-02-07T07:43:54.026Z,96921.84
2023-02-07T07:46:20.630Z,96918.97
2023-02-07T07:48:47.223Z,96931.03
2023-02-07T07:51:13.692Z,96925.44
2023-02-07T07:53:40.166Z,96935.56
2023-02-07T07:56:06.753Z,96934.97
2023-02-07T07:58:33.228Z,96934.78
2023-02-07T08:00:59.750Z,96931.88
2023-02-07T08:03:26.317Z,96953.50
2023-02-07T08:05:53.185Z,96949.84
2023-02-07T08:08:19.687Z,96943.63
2023-02-07T08:10:47.602Z,96953.75
2023-02-07T08:13:17.474Z,96959.56
2023-02-07T08:15:44.058Z,96951.16
2023-02-07T08:18:10.757Z,96949.81
2023-02-07T08:20:38.018Z,96954.78
2023-02-07T08:23:04.787Z,96954.50
2023-02-07T08:25:31.280Z,96959.53
2023-02-07T08:27:57.792Z,96969.75
2023-02-07T08:30:24.393Z,96971.56
2023-02-07T08:32:51.831Z,96963.78
2023-02-07T08:35:18.623Z,96966.53
2023-02-07T08:37:45.497Z,96968.84
2023-02-07T08:40:12.837Z,96977.75
2023-02-07T08:42:39.589Z,96972.16
2023-02-07T08:45:06.448Z,96974.31
2023-02-07T08:47:32.994Z,96978.59
2023-02-07T08:49:59.542Z,96977.22
2023-02-07T08:52:26.713Z,96985.84
2023-02-07T08:54:54.309Z,96979.53
2023-02-07T08:57:20.819Z,96973.66
2023-02-07T08:59:47.277Z,96983.25
2023-02-07T09:02:13.905Z,96993.19
2023-02-07T09:04:40.429Z,96992.66
2023-02-07T09:07:06.892Z,96996.25
2023-02-07T09:09:33.449Z,97000.16
2023-02-07T09:11:59.965Z,96998.31
2023-02-07T09:14:28.945Z,97006.06
2023-02-07T09:16:55.487Z,97014.25
2023-02-07T09:19:22.072Z,97011.75
2023-02-07T09:21:48.605Z,97011.00
2023-02-07T09:24:15.136Z,97021.16
2023-02-07T09:26:41.940Z,97019.28
2023-02-07T09:29:12.816Z,97027.72
2023-02-07T09:31:39.457Z,97017.41
2023-02-07T09:34:06.134Z,97017.56
2023-02-07T09:36:32.784Z,97020.81
2023-02-07T09:39:00.132Z,97019.50
2023-02-07T09:41:57.607Z,97023.19
2023-02-07T09:44:54.353Z,97038.84
2023-02-07T09:47:24.299Z,97044.25
2023-02-07T09:50:12.647Z,97034.66
2023-02-07T09:52:48.533Z,97035.06
2023-02-07T09:55:23.582Z,97039.84
2023-02-07T09:58:01.253Z,97043.31
2023-02-07T10:00:36.070Z,97043.03
2023-02-07T10:03:18.518Z,97048.53
2023-02-07T10:06:03.594Z,97042.84
2023-02-07T10:08:40.913Z,97049.78
2023-02-07T10:11:40.274Z,97040.78
2023-02-07T10:14:25.557Z,97047.31
2023-02-07T10:17:31.501Z,97054.00
2023-02-07T10:20:01.399Z,97043.75
2023-02-07T10:22:33.894Z,97054.47
2023-02-07T10:25:36.394Z,97054.03
2023-02-07T10:28:32.085Z,97044.41
2023-02-07T10:31:05.695Z,97032.72
2023-02-07T10:33:38.933Z,97038.69
2023-02-07T10:36:13.767Z,97041.44
2023-02-07T10:38:56.899Z,97029.03
2023-02-07T10:41:39.713Z,97033.47
2023-02-07T10:44:11.623Z,97037.78
2023-02-07T10:46:42.634Z,97040.59
2023-02-07T10:49:24.640Z,97032.31
2023-02-07T10:51:54.785Z,97038.09
2023-02-07T10:54:21.369Z,97040.09
2023-02-07T10:56:51.443Z,97040.91
2023-02-07T10:59:41.825Z,97033.44
2023-02-07T11:02:30.233Z,97037.09
2023-02-07T11:05:04.759Z,97039.06
2023-02-07T11:07:42.631Z,97035.59
2023-02-07T11:10:19.003Z,97037.91
2023-02-07T11:12:47.815Z,97040.66
2023-02-07T11:15:23.853Z,97046.16
2023-02-07T11:17:54.824Z,97047.56
2023-02-07T11:20:32.049Z,97044.00
2023-02-07T11:22:59.865Z,97042.44
2023-02-07T11:25:38.723Z,97044.66
2023-02-07T11:28:07.146Z,97049.84
2023-02-07T11:30:36.970Z,97050.91
2023-02-07T11:33:17.148Z,97049.22
2023-02-07T11:36:19.604Z,97044.88
2023-02-07T11:38:51.282Z,97042.22
2023-02-07T11:41:29.941Z,97045.31
2023-02-07T11:44:17.682Z,97047.38
2023-02-07T11:46:48.595Z,97044.94
2023-02-07T11:49:41.249Z,97033.97
2023-02-07T11:52:09.177Z,97034.94
2023-02-07T11:54:39.750Z,97037.13
2023-02-07T11:57:13.679Z,97037.53
2023-02-07T12:00:01.341Z,97041.03
2023-02-07T12:02:30.751Z,97037.47
2023-02-07T12:05:16.778Z,97041.00
2023-02-07T12:07:50.201Z,97036.19
2023-02-07T12:10:33.505Z,97029.38
2023-02-07T12:13:10.968Z,97024.88
2023-02-07T12:15:59.016Z,97016.56
2023-02-07T12:18:31.642Z,97021.16
2023-02-07T12:21:07.718Z,97021.31
2023-02-07T12:23:48.956Z,97007.19
2023-02-07T12:26:19.653Z,97017.03
2023-02-07T12:29:12.716Z,97013.41
2023-02-07T12:32:04.082Z,97006.84
2023-02-07T12:34:43.519Z,97009.66
2023-02-07T12:37:39.527Z,97011.16
2023-02-07T12:40:19.121Z,97004.88
2023-02-07T12:42:51.969Z,97002.69
2023-02-07T12:45:44.011Z,97011.34
2023-02-07T12:48:40.470Z,97006.59
2023-02-07T12:51:24.303Z,96998.56
2023-02-07T12:54:20.455Z,96997.00
2023-02-07T12:56:49.851Z,96986.13
2023-02-07T12:59:22.420Z,96979.56
2023-02-07T13:02:19.734Z,96987.72
2023-02-07T13:04:52.015Z,96984.56
2023-02-07T13:07:30.641Z,96976.44
2023-02-07T13:10:23.072Z,96987.63
2023-02-07T13:13:11.357Z,96973.38
2023-02-07T13:15:59.280Z,96983.03
2023-02-07T13:18:46.771Z,96985.94
2023-02-07T13:21:45.654Z,96982.91
2023-02-07T13:24:18.948Z,96983.16
2023-02-07T13:26:54.422Z,96975.25
2023-02-07T13:29:24.168Z,96971.44
2023-02-07T13:31:56.921Z,96981.81
2023-02-07T13:34:27.741Z,96977.97
2023-02-07T13:36:55.329Z,96979.66
2023-02-07T13:39:28.747Z,96975.34
2023-02-07T13:42:07.520Z,96977.00
2023-02-07T13:44:54.324Z,96977.16
2023-02-07T13:47:57.884Z,96974.75
2023-02-07T13:50:39.831Z,96980.00
2023-02-07T13:53:29.780Z,96977.91
2023-02-07T13:56:02.522Z,96972.09
2023-02-07T13:58:35.129Z,96978.84
2023-02-07T14:01:16.053Z,96972.13
2023-02-07T14:04:03.111Z,96971.50
2023-02-07T14:06:34.840Z,96976.06
2023-02-07T14:09:26.005Z,96976.41
2023-02-07T14:12:06.498Z,96973.84
2023-02-07T14:14:39.073Z,96978.88
2023-02-07T14:17:26.690Z,96982.53
2023-02-07T14:19:59.694Z,96978.38
2023-02-07T14:22:52.175Z,96973.97
2023-02-07T14:25:38.560Z,96976.72
2023-02-07T14:28:05.225Z,96974.75
2023-02-07T14:30:53.282Z,96976.63
2023-02-07T14:33:21.186Z,96981.91
2023-02-07T14:36:12.266Z,96977.16
2023-02-07T14:38:42.984Z,96971.66
2023-02-07T14:41:13.290Z,96976.03
2023-02-07T14:44:08.508Z,96971.56
2023-02-07T14:46:49.952Z,96976.88
2023-02-07T14:49:54.415Z,96973.72
2023-02-07T14:52:28.730Z,96976.97
2023-02-07T14:55:07.519Z,96970.09
2023-02-07T14:57:45.606Z,96969.00
2023-02-07T15:00:15.165Z,96966.56
2023-02-07T15:02:52.387Z,96973.94
2023-02-07T15:05:29.681Z,96973.63
2023-02-07T15:08:20.481Z,96979.66
2023-02-07T15:11:00.881Z,96975.06
2023-02-07T15:13:37.914Z,96974.91
2023-02-07T15:16:26.990Z,96977.09
2023-02-07T15:19:19.080Z,96984.41
2023-02-07T15:21:47.284Z,96971.59
2023-02-07T15:24:17.577Z,96977.63
2023-02-07T15:26:50.633Z,96971.53
2023-02-07T15:29:25.573Z,96977.47
2023-02-07T15:31:53.385Z,96979.41
2023-02-07T15:34:23.827Z,96981.41
2023-02-07T15:36:52.321Z,96978.19
2023-02-07T15:39:22.051Z,96979.09
2023-02-07T15:41:51.108Z,96975.78
2023-02-07T15:44:31.393Z,96980.41
2023-02-07T15:47:00.171Z,96971.84
2023-02-07T15:49:28.616Z,96973.19
2023-02-07T15:52:02.970Z,96971.72
2023-02-07T15:54:32.659Z,96970.38
2023-02-07T15:57:00.319Z,96971.41
2023-02-07T15:59:32.293Z,96966.97
2023-02-07T16:02:01.548Z,96967.91
2023-02-07T16:04:31.597Z,96974.34
2023-02-07T16:07:02.966Z,96969.91
2023-02-07T16:09:36.155Z,96975.59
2023-02-07T16:12:30.649Z,96973.03
2023-02-07T16:14:58.604Z,96976.41
2023-02-07T16:17:38.008Z,96978.13
2023-02-07T16:20:04.853Z,96977.28
2023-02-07T16:22:32.366Z,96970.81
2023-02-07T16:25:02.389Z,96971.84
2023-02-07T16:27:30.751Z,96976.00
2023-02-07T16:29:59.962Z,96969.25
2023-02-07T16:32:32.228Z,96969.94
2023-02-07T16:35:00.288Z,96972.44
2023-02-07T16:37:28.073Z,96967.81
2023-02-07T16:39:54.663Z,96972.38
2023-02-07T16:42:21.134Z,96970.34
2023-02-07T16:44:47.642Z,96963.06
2023-02-07T16:47:15.186Z,96972.34
2023-02-07T16:49:44.703Z,96968.06
2023-02-07T16:52:11.288Z,96966.56
2023-02-07T16:54:37.812Z,96974.00
2023-02-07T16:57:04.410Z,96974.38
2023-02-07T16:59:31.265Z,96975.59
2023-02-07T17:01:57.850Z,96970.72
2023-02-07T17:04:24.472Z,96972.28
2023-02-07T17:06:51.094Z,96965.84
2023-02-07T17:09:25.556Z,96963.94
2023-02-07T17:11:53.778Z,96967.50
2023-02-07T17:14:20.698Z,96972.97
2023-02-07T17:16:48.047Z,96967.63
2023-02-07T17:19:20.041Z,96977.03
2023-02-07T17:21:47.262Z,96978.09
2023-02-07T17:24:14.123Z,96967.56
2023-02-07T17:26:43.934Z,96961.88
2023-02-07T17:29:13.186Z,96960.47
2023-02-07T17:31:40.619Z,96967.84
2023-02-07T17:34:07.511Z,96960.94
2023-02-07T17:36:34.716Z,96959.28
2023-02-07T17:39:02.267Z,96978.03
2023-02-07T17:41:29.174Z,96971.59
2023-02-07T17:43:55.658Z,96970.34
2023-02-07T17:46:25.303Z,96965.97
2023-02-07T17:48:52.954Z,96971.97
2023-02-07T17:51:23.549Z,96973.09
2023-02-07T17:53:51.177Z,96963.59
2023-02-07T17:56:22.812Z,96959.94
2023-02-07T17:58:50.398Z,96963.78
2023-02-07T18:01:17.212Z,96970.19
2023-02-07T18:03:43.701Z,96969.75
2023-02-07T18:06:14.269Z,96972.06
2023-02-07T18:08:42.022Z,96983.75
2023-02-07T18:11:09.130Z,96978.03
2023-02-07T18:13:35.606Z,96977.06
2023-02-07T18:16:02.157Z,96982.03
2023-02-07T18:18:28.805Z,96984.22
2023-02-07T18:20:55.292Z,96983.03
2023-02-07T18:23:21.776Z,96981.38
2023-02-07T18:25:50.488Z,96986.63
2023-02-07T18:28:17.627Z,96985.34
2023-02-07T18:30:44.561Z,96976.47
2023-02-07T18:33:12.789Z,96977.75
2023-02-07T18:35:40.208Z,96976.75
2023-02-07T18:38:06.678Z,96978.81
2023-02-07T18:40:33.133Z,96984.19
2023-02-07T18:42:59.676Z,96983.03
2023-02-07T18:45:26.820Z,96996.25
2023-02-07T18:47:53.444Z,96988.50
2023-02-07T18:50:20.160Z,96986.25
2023-02-07T18:52:48.071Z,96979.50
2023-02-07T18:55:14.784Z,96979.19
2023-02-07T18:57:41.360Z,96988.69
2023-02-07T19:00:08.890Z,96984.75
2023-02-07T19:02:36.441Z,96979.53
2023-02-07T19:05:03.498Z,96983.56
2023-02-07T19:07:30.027Z,96974.66
2023-02-07T19:09:56.562Z,96976.44
2023-02-07T19:12:23.071Z,96974.75
2023-02-07T19:14:49.603Z,96975.59
2023-02-07T19:17:16.280Z,96965.25
2023-02-07T19:19:45.565Z,96971.75
2023-02-07T19:22:12.038Z,96969.56
2023-02-07T19:24:38.524Z,96959.53
2023-02-07T19:27:05.016Z,96962.03
2023-02-07T19:29:31.501Z,96964.03
2023-02-07T19:32:00.427Z,96965.13
2023-02-07T19:34:27.867Z,96968.19
2023-02-07T19:36:55.210Z,96969.91
2023-02-07T19:39:21.688Z,96961.16
2023-02-07T19:41:48.700Z,96962.63
2023-02-07T19:44:15.390Z,96962.00
2023-02-07T19:46:42.007Z,96967.72
2023-02-07T19:49:10.126Z,96960.81
2023-02-07T19:51:37.725Z,96967.69
2023-02-07T19:54:04.381Z,96966.72
2023-02-07T19:56:32.557Z,96962.97
2023-02-07T19:59:01.912Z,96964.75
2023-02-07T20:01:29.872Z,96968.75
2023-02-07T20:03:57.002Z,96971.56
2023-02-07T20:06:31.505Z,96965.72
2023-02-07T20:08:59.990Z,96969.91
2023-02-07T20:11:27.337Z,96969.50
2023-02-07T20:13:56.934Z,96957.94
2023-02-07T20:16:25.941Z,96970.22
2023-02-07T20:18:53.346Z,96968.22
2023-02-07T20:21:22.951Z,96968.47
2023-02-07T20:23:51.479Z,96961.19
2023-02-07T20:26:24.026Z,96965.66
2023-02-07T20:28:51.095Z,96965.44
2023-02-07T20:31:20.627Z,96964.00
2023-02-07T20:33:47.161Z,96971.44
2023-02-07T20:36:15.683Z,96969.47
2023-02-07T20:38:44.820Z,96967.25
2023-02-07T20:41:17.745Z,96961.00
2023-02-07T20:43:44.322Z,96966.94
2023-02-07T20:46:13.547Z,96964.19
2023-02-07T20:48:41.080Z,96975.22
2023-02-07T20:51:08.780Z,96969.75
2023-02-07T20:53:40.195Z,96964.41
2023-02-07T20:56:09.794Z,96966.19
2023-02-07T20:58:36.501Z,96972.75
2023-02-07T21:01:09.717Z,96964.94
2023-02-07T21:03:36.877Z,96966.00
2023-02-07T21:06:04.554Z,96965.78
2023-02-07T21:08:31.572Z,96962.03
2023-02-07T21:10:59.229Z,96955.94
2023-02-07T21:13:25.889Z,96960.91
2023-02-07T21:16:02.699Z,96956.16
2023-02-07T21:18:30.944Z,96950.28
2023-02-07T21:20:57.458Z,96956.91
2023-02-07T21:23:23.936Z,96952.22
2023-02-07T21:25:50.674Z,96952.00
2023-02-07T21:28:17.166Z,96932.88
2023-02-07T21:30:43.807Z,96949.44
2023-02-07T21:33:10.498Z,96931.09
2023-02-07T21:35:36.973Z,96928.19
2023-02-07T21:38:03.505Z,96925.50
2023-02-07T21:40:30.022Z,96925.59
2023-02-07T21:42:56.469Z,96930.13
2023-02-07T21:45:22.945Z,96930.53
2023-02-07T21:47:49.510Z,96931.44
2023-02-07T21:50:16.076Z,96923.63
2023-02-07T21:52:42.573Z,96919.97
2023-02-07T21:55:09.083Z,96917.69
2023-02-07T21:57:35.574Z,96919.44
2023-02-07T22:00:02.107Z,96909.41
2023-02-07T22:02:29.061Z,96907.16
2023-02-07T22:04:55.554Z,96901.50
2023-02-07T22:07:22.082Z,96911.44
2023-02-07T22:09:50.276Z,96905.31
2023-02-07T22:12:18.674Z,96902.72
2023-02-07T22:14:45.190Z,96900.66
2023-02-07T22:17:11.676Z,96897.31
2023-02-07T22:19:38.174Z,96902.88
2023-02-07T22:22:04.655Z,96893.97
2023-02-07T22:24:31.122Z,96899.34
2023-02-07T22:26:57.644Z,96892.84
2023-02-07T22:29:24.140Z,96882.19
2023-02-07T22:31:50.736Z,96886.69
2023-02-07T22:34:17.302Z,96885.34
2023-02-07T22:36:45.629Z,96889.63
2023-02-07T22:39:14.805Z,96884.47
2023-02-07T22:41:41.671Z,96887.38
2023-02-07T22:44:08.208Z,96891.13
2023-02-07T22:46:35.192Z,96895.25
2023-02-07T22:49:01.772Z,96889.50
2023-02-07T22:51:33.808Z,96894.53
2023-02-07T22:54:04.044Z,96897.06
2023-02-07T22:56:31.123Z,96886.31
2023-02-07T22:58:57.603Z,96888.84
2023-02-07T23:01:30.164Z,96891.66
2023-02-07T23:03:57.879Z,96894.72
2023-02-07T23:06:25.798Z,96889.69
2023-02-07T23:08:53.818Z,96890.69
2023-02-07T23:11:22.579Z,96890.06
2023-02-07T23:13:50.286Z,96897.25
2023-02-07T23:16:23.852Z,96890.44
2023-02-07T23:18:53.056Z,96891.06
2023-02-07T23:21:21.538Z,96891.44
2023-02-07T23:23:49.278Z,96892.38
2023-02-07T23:26:19.311Z,96892.22
2023-02-07T23:28:46.809Z,96892.81
2023-02-07T23:31:15.914Z,96886.53
2023-02-07T23:33:43.086Z,96891.91
2023-02-07T23:36:09.891Z,96891.53
2023-02-07T23:38:36.636Z,96892.09
2023-02-07T23:41:03.903Z,96888.63
2023-02-07T23:43:30.557Z,96886.22
2023-02-07T23:45:57.047Z,96890.47
2023-02-07T23:48:23.557Z,96876.09
2023-02-07T23:50:55.237Z,96880.94
2023-02-07T23:53:22.605Z,96882.56
2023-02-07T23:55:50.114Z,96876.41
2023-02-07T23:58:17.175Z,96878.13
